createdAt,value
2023-02-23T00:02:15.074Z,100220.50
2023-02-23T00:04:41.673Z,100222.50
2023-02-23T00:07:08.127Z,100220.63
2023-02-23T00:09:34.612Z,100214.09
2023-02-23T00:12:02.260Z,100212.44
2023-02-23T00:14:29.183Z,100215.47
2023-02-23T00:16:57.155Z,100218.22
2023-02-23T00:19:23.784Z,100216.97
2023-02-23T00:21:50.467Z,100213.88
2023-02-23T00:24:17.576Z,100222.50
2023-02-23T00:26:44.078Z,100219.06
2023-02-23T00:29:12.882Z,100213.75
2023-02-23T00:31:39.824Z,100212.50
2023-02-23T00:34:07.851Z,100211.00
2023-02-23T00:36:35.459Z,100218.41
2023-02-23T00:39:04.555Z,100200.88
2023-02-23T00:41:31.033Z,100214.16
2023-02-23T00:43:59.782Z,100216.50
2023-02-23T00:46:27.340Z,100205.84
2023-02-23T00:48:54.293Z,100210.38
2023-02-23T00:51:22.919Z,100211.44
2023-02-23T00:53:49.489Z,100208.78
2023-02-23T00:56:16.243Z,100206.94
2023-02-23T00:58:42.984Z,100218.41
2023-02-23T01:01:10.858Z,100210.53
2023-02-23T01:03:41.404Z,100216.53
2023-02-23T01:06:09.235Z,100217.63
2023-02-23T01:08:38.858Z,100209.16
2023-02-23T01:11:06.257Z,100222.06
2023-02-23T01:13:32.719Z,100222.06
2023-02-23T01:15:59.186Z,100228.69
2023-02-23T01:18:25.764Z,100234.41
2023-02-23T01:20:52.214Z,100225.94
2023-02-23T01:23:20.895Z,100222.69
2023-02-23T01:25:48.964Z,100229.84
2023-02-23T01:28:15.412Z,100229.88
2023-02-23T01:30:41.928Z,100222.00
2023-02-23T01:33:08.504Z,100227.72
2023-02-23T01:35:35.248Z,100226.19
2023-02-23T01:38:05.046Z,100230.31
2023-02-23T01:40:32.212Z,100228.31
2023-02-23T01:43:00.869Z,100227.06
2023-02-23T01:45:31.924Z,100226.25
2023-02-23T01:47:59.485Z,100224.75
2023-02-23T01:50:26.620Z,100218.44
2023-02-23T01:52:53.271Z,100218.63
2023-02-23T01:55:20.972Z,100225.84
2023-02-23T01:57:47.562Z,100223.16
2023-02-23T02:00:16.058Z,100229.91
2023-02-23T02:02:42.553Z,100226.75
2023-02-23T02:05:09.312Z,100228.00
2023-02-23T02:07:36.877Z,100223.56
2023-02-23T02:10:03.645Z,100223.94
2023-02-23T02:12:30.234Z,100224.31
2023-02-23T02:14:56.927Z,100225.66
2023-02-23T02:17:31.831Z,100222.63
2023-02-23T02:20:28.787Z,100223.56
2023-02-23T02:23:25.843Z,100213.97
2023-02-23T02:25:56.762Z,100211.88
2023-02-23T02:28:30.793Z,100218.97
2023-02-23T02:31:15.378Z,100218.94
2023-02-23T02:34:01.443Z,100216.53
2023-02-23T02:36:46.291Z,100207.16
2023-02-23T02:39:15.867Z,100216.78
2023-02-23T02:41:45.391Z,100218.84
2023-02-23T02:44:15.334Z,100216.47
2023-02-23T02:46:46.051Z,100214.03
2023-02-23T02:49:15.225Z,100218.38
2023-02-23T02:51:44.748Z,100215.38
2023-02-23T02:54:15.172Z,100211.16
2023-02-23T02:56:44.167Z,100210.88
2023-02-23T02:59:13.259Z,100205.06
2023-02-23T03:01:39.788Z,100210.69
2023-02-23T03:04:19.757Z,100209.69
2023-02-23T03:06:47.808Z,100212.91
2023-02-23T03:09:23.782Z,100211.78
2023-02-23T03:11:56.886Z,100212.91
2023-02-23T03:14:28.382Z,100204.84
2023-02-23T03:16:59.869Z,100210.22
2023-02-23T03:19:27.613Z,100214.31
2023-02-23T03:21:56.605Z,100204.47
2023-02-23T03:24:27.672Z,100217.06
2023-02-23T03:26:58.777Z,100211.34
2023-02-23T03:29:31.170Z,100210.59
2023-02-23T03:32:02.493Z,100214.31
2023-02-23T03:34:32.138Z,100224.66
2023-02-23T03:37:02.757Z,100216.94
2023-02-23T03:39:31.072Z,100217.28
2023-02-23T03:42:02.177Z,100218.09
2023-02-23T03:44:31.269Z,100214.59
2023-02-23T03:46:58.824Z,100217.66
2023-02-23T03:49:27.665Z,100220.59
2023-02-23T03:51:57.171Z,100224.63
2023-02-23T03:54:27.292Z,100223.78
2023-02-23T03:56:56.301Z,100217.53
2023-02-23T03:59:25.659Z,100219.56
2023-02-23T04:01:54.699Z,100224.25
2023-02-23T04:04:23.012Z,100219.56
2023-02-23T04:06:50.043Z,100220.69
2023-02-23T04:09:16.525Z,100226.78
2023-02-23T04:11:47.732Z,100220.84
2023-02-23T04:14:16.987Z,100229.91
2023-02-23T04:16:45.415Z,100219.22
2023-02-23T04:19:12.236Z,100225.72
2023-02-23T04:21:38.703Z,100221.53
2023-02-23T04:24:05.369Z,100217.16
2023-02-23T04:26:31.819Z,100222.63
2023-02-23T04:28:58.303Z,100224.56
2023-02-23T04:31:25.296Z,100217.25
2023-02-23T04:33:53.435Z,100224.88
2023-02-23T04:36:19.895Z,100226.53
2023-02-23T04:38:46.331Z,100222.72
2023-02-23T04:41:12.793Z,100223.03
2023-02-23T04:43:39.269Z,100216.31
2023-02-23T04:46:05.802Z,100222.03
2023-02-23T04:51:17.122Z,100222.81
2023-02-23T04:53:43.755Z,100223.56
2023-02-23T04:56:10.294Z,100229.97
2023-02-23T04:58:36.876Z,100226.06
2023-02-23T05:01:06.701Z,100227.25
2023-02-23T05:03:33.343Z,100223.16
2023-02-23T05:05:59.888Z,100233.06
2023-02-23T05:08:28.062Z,100225.25
2023-02-23T05:11:20.726Z,100236.69
2023-02-23T05:14:10.128Z,100235.34
2023-02-23T05:16:36.695Z,100236.38
2023-02-23T05:19:03.118Z,100231.91
2023-02-23T05:21:29.592Z,100233.19
2023-02-23T05:23:57.580Z,100231.69
2023-02-23T05:26:24.111Z,100233.59
2023-02-23T08:27:10.121Z,100339.34
2023-02-23T08:29:36.639Z,100340.84
2023-02-23T08:32:03.284Z,100341.78
2023-02-23T08:34:29.885Z,100345.63
2023-02-23T08:36:56.431Z,100347.31
2023-02-23T08:39:23.270Z,100346.59
2023-02-23T08:41:49.812Z,100346.59
2023-02-23T08:44:19.148Z,100343.03
2023-02-23T08:46:45.658Z,100342.66
2023-02-23T08:49:26.087Z,100340.72
2023-02-23T08:51:52.640Z,100339.47
2023-02-23T08:54:19.219Z,100339.53
2023-02-23T08:56:45.909Z,100334.88
2023-02-23T08:59:13.544Z,100330.06
2023-02-23T09:01:42.586Z,100333.84
2023-02-23T09:04:09.271Z,100337.78
2023-02-23T09:06:37.387Z,100336.63
2023-02-23T09:09:04.064Z,100332.47
2023-02-23T09:11:30.592Z,100331.13
2023-02-23T09:13:57.965Z,100342.53
2023-02-23T09:16:24.593Z,100345.56
2023-02-23T09:18:52.660Z,100342.75
2023-02-23T09:21:20.119Z,100343.81
2023-02-23T09:23:46.933Z,100340.69
2023-02-23T09:26:14.063Z,100343.16
2023-02-23T09:28:40.570Z,100337.88
2023-02-23T09:31:08.171Z,100340.03
2023-02-23T09:33:34.877Z,100339.50
2023-02-23T09:36:05.908Z,100344.06
2023-02-23T09:38:32.411Z,100338.22
2023-02-23T09:40:58.963Z,100338.56
2023-02-23T09:43:29.533Z,100348.34
2023-02-23T09:46:00.658Z,100344.16
2023-02-23T09:48:28.581Z,100344.25
2023-02-23T09:50:56.278Z,100342.63
2023-02-23T09:53:32.742Z,100350.16
2023-02-23T09:56:00.809Z,100348.22
2023-02-23T09:58:28.281Z,100346.38
2023-02-23T10:01:07.105Z,100339.75
2023-02-23T10:03:34.826Z,100344.66
2023-02-23T10:06:03.862Z,100343.25
2023-02-23T10:08:48.628Z,100341.97
2023-02-23T10:11:23.298Z,100346.47
2023-02-23T10:13:55.839Z,100345.06
2023-02-23T10:16:24.458Z,100342.56
2023-02-23T10:18:55.390Z,100340.47
2023-02-23T10:21:27.426Z,100338.75
2023-02-23T10:23:58.381Z,100331.47
2023-02-23T10:26:26.402Z,100339.63
2023-02-23T10:28:54.102Z,100335.59
2023-02-23T10:31:26.790Z,100337.31
2023-02-23T10:33:55.585Z,100331.31
2023-02-23T10:36:29.359Z,100330.22
2023-02-23T10:38:57.388Z,100328.81
2023-02-23T10:41:24.259Z,100327.31
2023-02-23T10:43:50.865Z,100319.91
2023-02-23T10:46:20.208Z,100310.63
2023-02-23T10:48:47.557Z,100312.09
2023-02-23T10:51:18.597Z,100305.34
2023-02-23T10:53:45.578Z,100298.69
2023-02-23T10:56:14.770Z,100299.75
2023-02-23T10:58:45.405Z,100306.44
2023-02-23T11:01:31.518Z,100301.44
2023-02-23T11:04:20.623Z,100300.06
2023-02-23T11:06:47.514Z,100294.91
2023-02-23T11:09:45.690Z,100290.97
2023-02-23T11:12:18.020Z,100290.94
2023-02-23T11:14:45.343Z,100285.09
2023-02-23T11:17:24.312Z,100286.38
2023-02-23T11:19:57.074Z,100276.63
2023-02-23T11:22:23.817Z,100275.44
2023-02-23T11:24:50.456Z,100283.16
2023-02-23T11:27:23.590Z,100277.84
2023-02-23T11:29:51.799Z,100273.56
2023-02-23T11:32:20.981Z,100268.97
2023-02-23T11:37:31.621Z,100261.19
2023-02-23T11:39:59.319Z,100255.91
2023-02-23T11:42:37.032Z,100262.00
2023-02-23T11:45:05.531Z,100258.91
2023-02-23T11:48:01.433Z,100258.31
2023-02-23T11:53:34.334Z,100258.56
2023-02-23T11:56:32.262Z,100255.13
2023-02-23T11:59:22.544Z,100259.63
2023-02-23T12:02:06.678Z,100254.91
2023-02-23T12:04:34.523Z,100251.31
2023-02-23T12:07:20.145Z,100252.59
2023-02-23T12:09:56.733Z,100248.03
2023-02-23T12:15:20.082Z,100248.03
2023-02-23T12:23:55.477Z,100244.31
2023-02-23T12:26:23.835Z,100244.31
2023-02-23T12:28:53.531Z,100242.22
2023-02-23T12:31:24.322Z,100242.09
2023-02-23T12:33:54.530Z,100241.41
2023-02-23T12:36:26.721Z,100236.28
2023-02-23T12:38:56.238Z,100233.31
2023-02-23T12:41:31.552Z,100233.66
2023-02-23T12:44:00.762Z,100221.16
2023-02-23T12:46:29.941Z,100227.94
2023-02-23T12:49:00.614Z,100226.06
2023-02-23T12:51:32.291Z,100227.78
2023-02-23T12:53:59.054Z,100227.78
2023-02-23T12:56:33.448Z,100224.91
2023-02-23T12:59:05.710Z,100222.34
2023-02-23T13:01:35.475Z,100222.88
2023-02-23T13:04:13.047Z,100221.50
2023-02-23T13:06:52.078Z,100220.84
2023-02-23T13:09:34.584Z,100220.53
2023-02-23T13:12:07.872Z,100222.50
2023-02-23T13:14:44.268Z,100220.06
2023-02-23T13:17:27.835Z,100225.41
2023-02-23T13:20:09.607Z,100235.88
2023-02-23T13:22:43.460Z,100232.44
2023-02-23T13:26:22.229Z,100225.47
2023-02-23T13:28:41.312Z,100228.56
2023-02-23T13:31:22.197Z,100224.16
2023-02-23T13:34:15.082Z,100228.06
2023-02-23T13:40:04.652Z,100212.59
2023-02-23T13:45:55.358Z,100214.38
2023-02-23T13:49:45.003Z,100203.06
2023-02-23T13:51:48.789Z,100206.16
2023-02-23T13:54:31.502Z,100204.06
2023-02-23T13:57:06.142Z,100205.41
2023-02-23T13:59:55.149Z,100206.75
2023-02-23T14:02:55.627Z,100207.88
2023-02-23T14:05:23.410Z,100204.03
2023-02-23T14:07:52.133Z,100204.63
2023-02-23T14:10:26.386Z,100205.75
2023-02-23T14:13:36.523Z,100209.41
2023-02-23T14:20:29.988Z,100203.75
2023-02-23T14:23:12.205Z,100204.94
2023-02-23T14:26:13.901Z,100206.66
2023-02-23T14:28:53.081Z,100202.66
2023-02-23T14:34:52.564Z,100197.34
2023-02-23T14:37:23.375Z,100206.38
2023-02-23T14:40:05.709Z,100202.03
2023-02-23T14:52:52.543Z,100208.78
2023-02-23T14:55:07.365Z,100209.88
2023-02-23T14:57:38.840Z,100203.78
2023-02-23T15:02:59.934Z,100200.75
2023-02-23T15:05:35.291Z,100206.34
2023-02-23T15:08:07.014Z,100207.56
2023-02-23T15:10:36.726Z,100206.03
2023-02-23T15:13:15.186Z,100206.28
2023-02-23T15:15:47.683Z,100204.53
2023-02-23T15:18:22.699Z,100212.03
2023-02-23T15:20:51.068Z,100203.13
2023-02-23T15:23:22.432Z,100207.94
2023-02-23T15:25:49.005Z,100204.81
2023-02-23T15:28:25.461Z,100202.19
2023-02-23T15:30:56.208Z,100205.03
2023-02-23T15:33:27.753Z,100203.19
2023-02-23T15:41:39.937Z,100217.81
2023-02-23T15:44:11.447Z,100210.75
2023-02-23T15:46:44.245Z,100214.22
2023-02-23T15:50:02.945Z,100218.03
2023-02-23T15:52:06.793Z,100211.19
2023-02-23T15:54:36.705Z,100216.09
2023-02-23T15:57:05.950Z,100220.13
2023-02-23T15:59:34.773Z,100212.53
2023-02-23T16:02:02.206Z,100210.81
2023-02-23T16:04:43.792Z,100212.09
2023-02-23T16:07:15.940Z,100210.34
2023-02-23T16:10:07.132Z,100217.31
2023-02-23T16:12:36.472Z,100218.41
2023-02-23T16:15:06.721Z,100216.44
2023-02-23T16:17:37.931Z,100223.28
2023-02-23T16:20:13.403Z,100223.94
2023-02-23T16:22:41.385Z,100223.06
2023-02-23T16:25:11.615Z,100216.63
2023-02-23T16:27:39.630Z,100218.41
2023-02-23T16:30:18.936Z,100223.47
2023-02-23T16:32:45.905Z,100220.00
2023-02-23T16:35:16.064Z,100231.06
2023-02-23T16:40:38.935Z,100207.84
2023-02-23T16:43:05.761Z,100228.22
2023-02-23T16:45:33.024Z,100204.38
2023-02-23T16:47:59.887Z,100210.41
2023-02-23T16:50:26.902Z,100207.06
2023-02-23T16:52:53.777Z,100223.91
2023-02-23T16:55:21.692Z,100228.56
2023-02-23T16:57:50.131Z,100234.63
2023-02-23T17:00:21.273Z,100243.13
2023-02-23T17:02:48.105Z,100221.81
2023-02-23T17:05:16.741Z,100223.38
2023-02-23T17:07:43.481Z,100220.19
2023-02-23T17:10:16.262Z,100223.75
2023-02-23T17:12:43.013Z,100232.00
2023-02-23T17:15:16.710Z,100240.28
2023-02-23T17:17:43.694Z,100217.66
2023-02-23T17:20:11.728Z,100244.84
2023-02-23T17:22:38.446Z,100232.91
2023-02-23T17:25:06.166Z,100233.31
2023-02-23T17:27:32.999Z,100222.09
2023-02-23T17:29:59.808Z,100228.72
2023-02-23T17:32:28.161Z,100234.25
2023-02-23T17:34:55.118Z,100247.31
2023-02-23T17:37:22.073Z,100244.78
2023-02-23T17:39:49.145Z,100240.03
2023-02-23T17:42:16.013Z,100238.09
2023-02-23T17:44:42.794Z,100239.81
2023-02-23T17:47:09.765Z,100247.66
2023-02-23T17:49:38.043Z,100246.31
2023-02-23T17:52:04.860Z,100232.50
2023-02-23T17:54:31.719Z,100244.63
2023-02-23T17:56:58.657Z,100244.63
2023-02-23T17:59:25.482Z,100229.28
2023-02-23T18:01:52.265Z,100248.28
2023-02-23T18:04:19.111Z,100238.09
2023-02-23T18:06:47.201Z,100244.97
2023-02-23T18:09:13.986Z,100248.78
2023-02-23T18:11:40.719Z,100250.75
2023-02-23T18:14:07.439Z,100258.97
2023-02-23T18:16:34.208Z,100244.56
2023-02-23T18:19:00.896Z,100247.19
2023-02-23T18:21:28.057Z,100262.19
2023-02-23T18:23:56.676Z,100248.91
2023-02-23T18:26:24.762Z,100246.31
2023-02-23T18:28:52.668Z,100237.19
2023-02-23T18:31:22.664Z,100239.91
2023-02-23T18:33:52.015Z,100241.19
2023-02-23T18:36:31.905Z,100240.72
2023-02-23T18:39:06.868Z,100259.13
2023-02-23T18:41:33.862Z,100236.66
2023-02-23T18:44:02.409Z,100235.41
2023-02-23T18:46:29.517Z,100241.28
2023-02-23T18:48:56.548Z,100248.56
2023-02-23T18:51:24.169Z,100240.34
2023-02-23T18:53:51.562Z,100239.75
2023-02-23T18:56:23.398Z,100228.13
2023-02-23T18:58:54.742Z,100226.88
2023-02-23T19:01:23.820Z,100219.66
2023-02-23T19:03:51.834Z,100241.78
2023-02-23T19:06:19.631Z,100242.28
2023-02-23T19:08:50.122Z,100233.38
2023-02-23T19:11:17.234Z,100236.09
2023-02-23T19:13:45.516Z,100234.06
2023-02-23T19:16:12.270Z,100244.41
2023-02-23T19:18:39.231Z,100253.13
2023-02-23T19:21:06.343Z,100237.28
2023-02-23T19:23:36.042Z,100253.31
2023-02-23T19:26:08.741Z,100251.50
2023-02-23T19:28:35.600Z,100255.06
2023-02-23T19:31:06.611Z,100258.53
2023-02-23T19:33:33.820Z,100239.56
2023-02-23T19:36:04.340Z,100239.88
2023-02-23T19:38:31.622Z,100229.91
2023-02-23T19:40:58.402Z,100242.56
2023-02-23T19:43:25.575Z,100244.13
2023-02-23T19:45:53.070Z,100248.41
2023-02-23T19:48:21.393Z,100244.69
2023-02-23T19:50:49.049Z,100230.09
2023-02-23T19:53:15.907Z,100240.84
2023-02-23T19:55:47.371Z,100245.78
2023-02-23T19:58:21.414Z,100239.41
2023-02-23T20:00:48.091Z,100239.78
2023-02-23T20:03:14.922Z,100228.66
2023-02-23T20:05:43.294Z,100240.84
2023-02-23T20:08:10.198Z,100251.66
2023-02-23T20:10:39.373Z,100248.06
2023-02-23T20:13:06.424Z,100238.41
2023-02-23T20:15:33.344Z,100246.56
2023-02-23T20:18:00.250Z,100233.28
2023-02-23T20:20:40.975Z,100229.22
2023-02-23T20:23:12.024Z,100237.47
2023-02-23T20:25:41.651Z,100211.34
2023-02-23T20:28:08.555Z,100233.00
2023-02-23T20:30:50.226Z,100209.69
2023-02-23T20:33:19.502Z,100226.44
2023-02-23T20:35:59.976Z,100224.97
2023-02-23T20:38:43.101Z,100227.00
2023-02-23T20:41:12.003Z,100224.59
2023-02-23T20:43:39.143Z,100242.16
2023-02-23T20:46:07.841Z,100232.56
2023-02-23T20:48:35.862Z,100226.25
2023-02-23T20:54:30.326Z,100220.72
2023-02-23T21:08:18.490Z,100231.81
2023-02-23T21:51:15.308Z,100221.16
2023-02-23T21:53:43.492Z,100215.28
2023-02-23T21:56:12.358Z,100225.44
2023-02-23T21:58:45.087Z,100214.41
2023-02-23T22:01:16.618Z,100226.91
2023-02-23T22:03:43.848Z,100226.03
2023-02-23T22:06:11.338Z,100222.22
2023-02-23T22:08:40.080Z,100229.97
2023-02-23T22:11:08.045Z,100214.94
2023-02-23T22:13:35.012Z,100217.13
2023-02-23T22:16:02.113Z,100206.69
2023-02-23T22:18:29.082Z,100206.97
2023-02-23T22:20:57.430Z,100223.34
2023-02-23T22:23:24.403Z,100204.94
2023-02-23T22:26:21.166Z,100216.38
2023-02-23T23:06:28.425Z,100181.47
2023-02-23T23:08:56.324Z,100182.31
2023-02-23T23:11:25.020Z,100186.22
2023-02-23T23:13:53.239Z,100185.13
2023-02-23T23:16:31.174Z,100185.28
2023-02-23T23:19:00.599Z,100182.59
2023-02-23T23:21:30.273Z,100171.09
2023-02-23T23:23:59.126Z,100175.53
2023-02-23T23:26:27.929Z,100160.84
2023-02-23T23:28:56.708Z,100170.34
2023-02-23T23:31:26.696Z,100171.75
2023-02-23T23:33:55.785Z,100185.81
2023-02-23T23:36:24.465Z,100158.53
2023-02-23T23:38:53.169Z,100171.75
2023-02-23T23:41:20.628Z,100156.59
2023-02-23T23:43:47.888Z,100162.22
2023-02-23T23:46:15.696Z,100160.06
2023-02-23T23:48:42.473Z,100161.88
2023-02-23T23:51:09.157Z,100153.00
2023-02-23T23:53:35.890Z,100162.38
2023-02-23T23:56:05.959Z,100162.69
2023-02-23T23:58:33.730Z,100152.25
